createdAt,value
2019-05-17T00:00:57.379Z,94426.39
2019-05-17T00:05:59.597Z,94417.97
2019-05-17T00:11:01.516Z,94411.64
2019-05-17T00:16:03.563Z,94407.77
2019-05-17T00:21:07.534Z,94413.92
2019-05-17T00:26:09.208Z,94412.06
2019-05-17T00:31:11.079Z,94407.74
2019-05-17T00:36:13.106Z,94409.81
2019-05-17T00:41:17.484Z,94409.33
2019-05-17T00:46:18.887Z,94422.44
2019-05-17T00:51:20.744Z,94418.69
2019-05-17T00:56:22.635Z,94416.59
2019-05-17T01:01:27.021Z,94404.53
2019-05-17T01:06:29.129Z,94406.18
2019-05-17T01:11:31.041Z,94403.45
2019-05-17T01:16:33.028Z,94405.45
2019-05-17T01:21:36.733Z,94404.34
2019-05-17T01:26:38.815Z,94400.74
2019-05-17T01:31:40.730Z,94406.98
2019-05-17T01:36:42.759Z,94408.73
2019-05-17T01:41:46.677Z,94402.34
2019-05-17T01:46:48.549Z,94402.84
2019-05-17T01:51:50.577Z,94407.31
2019-05-17T01:56:52.549Z,94406.81
2019-05-17T02:01:56.606Z,94395.27
2019-05-17T02:07:52.395Z,94391.77
2019-05-17T02:12:56.895Z,94404.16
2019-05-17T02:17:58.272Z,94396.27
2019-05-17T02:23:00.316Z,94404.09
2019-05-17T02:28:02.346Z,94394.75
2019-05-17T02:33:04.810Z,94388.69
2019-05-17T02:38:06.909Z,94392.73
2019-05-17T02:43:08.838Z,94390.91
2019-05-17T02:48:13.411Z,94395.09
2019-05-17T02:53:14.611Z,94388.63
2019-05-17T02:58:16.535Z,94398.36
2019-05-17T03:03:18.492Z,94400.22
2019-05-17T03:08:23.534Z,94387.81
2019-05-17T03:13:24.392Z,94393.45
2019-05-17T03:18:26.312Z,94389.90
2019-05-17T03:23:28.225Z,94392.03
2019-05-17T03:28:33.401Z,94393.19
2019-05-17T03:33:36.329Z,94398.42
2019-05-17T03:38:38.513Z,94390.78
2019-05-17T03:43:44.295Z,94387.82
2019-05-17T03:48:45.704Z,94395.52
2019-05-17T03:53:47.605Z,94399.43
2019-05-17T03:58:52.844Z,94406.08
2019-05-17T04:03:53.481Z,94403.11
2019-05-17T04:08:55.458Z,94406.73
2019-05-17T04:13:57.350Z,94414.20
2019-05-17T04:18:59.207Z,94413.05
2019-05-17T04:24:03.203Z,94416.55
2019-05-17T04:29:05.824Z,94417.29
2019-05-17T04:34:07.699Z,94422.28
2019-05-17T04:39:09.586Z,94419.47
2019-05-17T04:44:12.863Z,94421.06
2019-05-17T04:49:14.947Z,94424.55
2019-05-17T04:54:16.886Z,94428.73
2019-05-17T04:59:18.824Z,94426.66
2019-05-17T05:04:22.573Z,94429.58
2019-05-17T05:09:24.593Z,94421.48
2019-05-17T05:14:26.542Z,94426.04
2019-05-17T05:19:28.433Z,94426.82
2019-05-17T05:24:31.525Z,94426.84
2019-05-17T05:29:33.815Z,94431.48
2019-05-17T05:34:35.792Z,94430.61
2019-05-17T05:39:37.714Z,94427.14
2019-05-17T05:44:41.557Z,94431.15
2019-05-17T05:49:43.529Z,94436.69
2019-05-17T05:54:45.442Z,94439.84
2019-05-17T05:59:47.291Z,94428.55
2019-05-17T06:04:51.850Z,94429.02
2019-05-17T06:09:54.791Z,94427.98
2019-05-17T06:14:56.798Z,94426.59
2019-05-17T06:19:58.697Z,94430.23
2019-05-17T06:25:03.869Z,94425.80
2019-05-17T06:30:05.537Z,94429.00
2019-05-17T06:35:09.200Z,94431.30
2019-05-17T06:40:12.993Z,94423.87
2019-05-17T06:45:15.697Z,94423.98
2019-05-17T06:50:17.851Z,94430.05
2019-05-17T06:55:19.847Z,94419.36
2019-05-17T07:00:23.919Z,94422.81
2019-05-17T07:05:33.934Z,94430.86
2019-05-17T07:10:35.870Z,94434.64
2019-05-17T07:15:44.745Z,94437.63
2019-05-17T07:20:42.038Z,94430.05
2019-05-17T07:25:44.017Z,94435.97
2019-05-17T07:30:45.998Z,94433.95
2019-05-17T07:35:49.980Z,94436.77
2019-05-17T07:40:52.032Z,94424.42
2019-05-17T07:45:53.941Z,94422.67
2019-05-17T07:50:56.001Z,94417.05
2019-05-17T07:55:59.702Z,94420.42
2019-05-17T08:01:02.437Z,94411.51
2019-05-17T08:06:04.554Z,94413.64
2019-05-17T08:11:06.501Z,94417.47
2019-05-17T08:16:10.354Z,94423.91
2019-05-17T08:21:12.213Z,94425.66
2019-05-17T08:26:14.273Z,94423.27
2019-05-17T08:31:20.026Z,94418.06
2019-05-17T08:36:21.609Z,94421.05
2019-05-17T08:41:23.594Z,94425.16
2019-05-17T08:46:25.470Z,94419.87
2019-05-17T08:51:27.395Z,94410.64
2019-05-17T08:56:30.953Z,94416.75
2019-05-17T09:01:33.112Z,94414.42
2019-05-17T09:06:34.974Z,94409.47
2019-05-17T09:11:36.835Z,94408.45
2019-05-17T09:16:40.118Z,94409.92
2019-05-17T09:21:42.276Z,94402.08
2019-05-17T09:26:44.305Z,94401.67
2019-05-17T09:31:47.262Z,94394.44
2019-05-17T09:36:49.731Z,94397.30
2019-05-17T09:41:51.871Z,94401.02
2019-05-17T09:46:53.797Z,94398.69
2019-05-17T09:51:55.643Z,94403.16
2019-05-17T09:56:57.601Z,94405.33
2019-05-17T10:02:00.094Z,94410.19
2019-05-17T10:07:02.154Z,94411.31
2019-05-17T10:12:04.070Z,94412.43
2019-05-17T10:17:05.960Z,94414.98
2019-05-17T10:22:10.190Z,94416.57
2019-05-17T10:27:14.478Z,94419.55
2019-05-17T10:32:15.560Z,94425.53
2019-05-17T10:37:20.344Z,94424.19
2019-05-17T10:42:21.612Z,94426.61
2019-05-17T10:47:23.772Z,94415.83
2019-05-17T10:52:25.661Z,94418.00
2019-05-17T10:57:30.087Z,94424.13
2019-05-17T11:02:31.479Z,94429.37
2019-05-17T11:07:33.322Z,94431.18
2019-05-17T11:12:35.250Z,94426.77
2019-05-17T11:17:37.151Z,94419.59
2019-05-17T11:22:39.072Z,94416.70
2019-05-17T11:27:41.086Z,94417.39
2019-05-17T11:32:44.093Z,94420.28
2019-05-17T11:37:46.205Z,94418.06
2019-05-17T11:42:48.153Z,94413.04
2019-05-17T11:47:50.146Z,94408.42
2019-05-17T11:52:52.271Z,94411.88
2019-05-17T11:57:56.490Z,94404.14
2019-05-17T12:03:00.071Z,94391.19
2019-05-17T12:08:02.098Z,94393.55
2019-05-17T12:13:04.340Z,94396.12
2019-05-17T12:18:06.972Z,94386.77
2019-05-17T12:23:13.101Z,94392.75
2019-05-17T12:28:15.357Z,94393.55
2019-05-17T12:33:17.891Z,94391.82
2019-05-17T12:38:22.102Z,94395.23
2019-05-17T12:43:24.514Z,94398.02
2019-05-17T12:48:26.677Z,94386.42
2019-05-17T12:53:28.884Z,94383.14
2019-05-17T12:58:31.243Z,94376.17
2019-05-17T13:03:33.641Z,94374.66
2019-05-17T13:08:38.609Z,94366.14
2019-05-17T13:13:42.285Z,94376.05
2019-05-17T13:18:44.430Z,94374.75
2019-05-17T13:23:46.680Z,94365.11
2019-05-17T13:28:49.238Z,94371.98
2019-05-17T13:33:55.120Z,94368.74
2019-05-17T13:38:57.819Z,94368.89
2019-05-17T13:44:01.440Z,94352.39
2019-05-17T13:54:07.185Z,94357.98
2019-05-17T13:59:09.564Z,94380.97
2019-05-17T14:04:11.879Z,94367.94
2019-05-17T14:09:14.268Z,94363.67
2019-05-17T14:14:16.559Z,94366.03
2019-05-17T14:19:18.757Z,94365.09
2019-05-17T14:24:21.004Z,94374.34
2019-05-17T14:29:23.552Z,94373.14
2019-05-17T14:34:25.999Z,94369.61
2019-05-17T14:39:28.306Z,94374.74
2019-05-17T14:44:30.686Z,94378.03
2019-05-17T14:49:32.884Z,94396.61
2019-05-17T14:54:35.131Z,94379.23
2019-05-17T14:59:37.523Z,94399.66
2019-05-17T15:04:39.869Z,94394.53
2019-05-17T15:09:42.404Z,94401.49
2019-05-17T15:14:44.547Z,94402.88
2019-05-17T15:19:46.871Z,94402.17
2019-05-17T15:24:49.208Z,94385.85
2019-05-17T15:29:51.360Z,94369.95
2019-05-17T15:34:53.748Z,94383.34
2019-05-17T15:39:56.091Z,94371.92
2019-05-17T15:44:58.380Z,94384.47
2019-05-17T15:50:01.753Z,94371.92
2019-05-17T15:55:05.658Z,94363.97
2019-05-17T16:00:10.464Z,94373.47
2019-05-17T16:05:13.236Z,94334.38
2019-05-17T16:10:16.203Z,94312.70
2019-05-17T16:15:18.335Z,94348.92
2019-05-17T16:20:20.755Z,94365.25
2019-05-17T16:25:23.287Z,94380.05
2019-05-17T16:30:25.786Z,94380.05
2019-05-17T16:35:28.224Z,94358.94
2019-05-17T16:40:30.688Z,94307.97
2019-05-17T16:45:33.442Z,94351.83
2019-05-17T16:50:35.821Z,94398.47
2019-05-17T16:55:38.341Z,94367.05
2019-05-17T17:00:42.454Z,94373.72
2019-05-17T17:05:44.922Z,94391.09
2019-05-17T17:10:47.432Z,94378.69
2019-05-17T17:15:49.872Z,94385.27
2019-05-17T17:20:52.219Z,94377.38
2019-05-17T17:25:55.531Z,94404.72
2019-05-17T17:31:00.087Z,94378.11
2019-05-17T17:36:02.393Z,94375.34
2019-05-17T17:41:04.757Z,94419.30
2019-05-17T17:46:07.072Z,94419.83
2019-05-17T17:51:09.573Z,94413.05
2019-05-17T17:56:13.672Z,94415.38
2019-05-17T18:01:16.543Z,94412.11
2019-05-17T18:06:18.714Z,94433.76
2019-05-17T18:11:21.044Z,94448.27
2019-05-17T18:16:23.358Z,94441.48
2019-05-17T18:21:25.957Z,94447.17
2019-05-17T18:26:27.978Z,94440.14
2019-05-17T18:31:30.245Z,94425.52
2019-05-17T18:36:32.727Z,94423.44
2019-05-17T18:41:35.108Z,94433.10
2019-05-17T18:46:37.669Z,94437.34
2019-05-17T18:51:40.058Z,94435.92
2019-05-17T18:56:43.523Z,94440.67
2019-05-17T19:01:45.691Z,94450.30
2019-05-17T19:06:50.679Z,94453.05
2019-05-17T19:11:53.204Z,94454.14
2019-05-17T19:16:55.839Z,94461.02
2019-05-17T19:21:59.259Z,94452.14
2019-05-17T19:27:01.862Z,94463.15
2019-05-17T19:32:04.184Z,94458.90
2019-05-17T19:37:06.737Z,94466.22
2019-05-17T19:42:12.676Z,94465.38
2019-05-17T19:47:15.337Z,94474.07
2019-05-17T19:52:17.437Z,94474.27
2019-05-17T19:57:19.996Z,94478.33
2019-05-17T20:02:22.342Z,94473.17
2019-05-17T20:07:24.667Z,94462.30
2019-05-17T20:12:27.064Z,94453.66
2019-05-17T20:17:29.331Z,94447.08
2019-05-17T20:22:31.669Z,94447.41
2019-05-17T20:27:34.180Z,94435.83
2019-05-17T20:32:36.622Z,94429.31
2019-05-17T20:37:39.285Z,94449.19
2019-05-17T20:42:41.489Z,94442.66
2019-05-17T20:47:43.739Z,94446.16
2019-05-17T20:52:46.634Z,94439.03
2019-05-17T20:57:49.178Z,94436.14
2019-05-17T21:02:51.266Z,94434.34
2019-05-17T21:07:54.555Z,94440.03
2019-05-17T21:12:56.861Z,94428.09
2019-05-17T21:17:59.436Z,94429.16
2019-05-17T21:23:01.403Z,94428.32
2019-05-17T21:28:03.877Z,94434.89
2019-05-17T21:33:06.708Z,94437.24
2019-05-17T21:38:09.222Z,94434.70
2019-05-17T21:43:11.442Z,94437.64
2019-05-17T21:48:13.724Z,94435.73
2019-05-17T21:53:15.817Z,94436.03
2019-05-17T21:58:20.439Z,94433.83
2019-05-17T22:03:22.087Z,94436.42
2019-05-17T22:08:24.392Z,94436.44
2019-05-17T22:13:26.682Z,94449.05
2019-05-17T22:18:28.958Z,94446.55
2019-05-17T22:23:32.145Z,94438.65
2019-05-17T22:28:34.465Z,94442.48
2019-05-17T22:33:36.717Z,94433.78
2019-05-17T22:38:38.978Z,94431.80
2019-05-17T22:43:42.207Z,94436.03
2019-05-17T22:48:44.401Z,94436.81
2019-05-17T22:53:46.613Z,94423.00
2019-05-17T22:58:48.927Z,94420.59
2019-05-17T23:03:51.291Z,94413.28
2019-05-17T23:08:53.283Z,94411.12
2019-05-17T23:13:55.480Z,94417.06
2019-05-17T23:19:06.022Z,94415.06
2019-05-17T23:24:08.198Z,94414.73
2019-05-17T23:29:10.342Z,94418.76
2019-05-17T23:34:12.398Z,94424.20
2019-05-17T23:39:14.693Z,94419.80
2019-05-17T23:44:16.964Z,94424.80
2019-05-17T23:49:19.094Z,94426.14
2019-05-17T23:54:21.189Z,94442.53
2019-05-17T23:59:23.683Z,94436.96
